Terminal Aerodrome Forecast
Issued by NWS Wichita, KS

Home | Current Version | Previous Version | Graphics & Text | Print | Product List | Glossary On
Versions: 1 2 3 4 5 6 7 8 9 10 11 12 13 14 15 16 17 18 19 20
000
FTUS43 KICT 270226 AAB
TAFICT
TAF AMD
KICT 270226Z 2702/2724 05011KT 6SM SHRA SCT015 OVC050
      TEMPO 2702/2704 4SM TSRA OVC015CB
     FM270400 03012KT 6SM BR VCTS OVC010CB
      TEMPO 2704/2707 4SM SHRA OVC010
     FM270700 01012KT 4SM BR VCSH OVC005
     FM271500 36009KT P6SM SCT020=

USA.gov is the U.S. government's official web portal to all federal, state and local government web resources and services.